createdAt,value
2018-05-31T00:00:25.843Z,22.42
2018-05-31T00:01:06.234Z,22.36
2018-05-31T00:01:46.645Z,22.38
2018-05-31T00:02:27.045Z,22.33
2018-05-31T00:03:07.466Z,22.26
2018-05-31T00:03:47.856Z,22.24
2018-05-31T00:04:28.272Z,22.14
2018-05-31T00:05:08.689Z,22.11
2018-05-31T00:05:49.113Z,22.04
2018-05-31T00:06:29.505Z,22.02
2018-05-31T00:07:09.853Z,22.02
2018-05-31T00:07:50.273Z,21.89
2018-05-31T00:08:30.683Z,21.77
2018-05-31T00:09:11.074Z,21.73
2018-05-31T00:09:51.441Z,21.63
2018-05-31T00:10:31.883Z,21.63
2018-05-31T00:11:12.295Z,21.67
2018-05-31T00:11:52.680Z,21.66
2018-05-31T00:12:33.046Z,21.64
2018-05-31T00:13:13.464Z,21.66
2018-05-31T00:13:53.869Z,21.59
2018-05-31T00:14:34.285Z,21.59
2018-05-31T00:15:14.660Z,21.59
2018-05-31T00:15:55.103Z,21.73
2018-05-31T00:16:35.531Z,21.74
2018-05-31T00:17:15.904Z,21.77
2018-05-31T00:17:56.329Z,21.75
2018-05-31T00:18:36.746Z,21.82
2018-05-31T00:19:17.133Z,21.83
2018-05-31T00:19:57.541Z,21.94
2018-05-31T00:20:37.933Z,21.89
2018-05-31T00:21:18.387Z,21.86
2018-05-31T00:21:58.768Z,21.98
2018-05-31T00:22:39.202Z,21.96
2018-05-31T00:23:19.655Z,21.99
2018-05-31T00:24:00.034Z,22.04
2018-05-31T00:24:40.441Z,21.94
2018-05-31T00:25:20.853Z,22.02
2018-05-31T00:26:01.220Z,21.96
2018-05-31T00:26:41.645Z,21.93
2018-05-31T00:27:22.048Z,21.91
2018-05-31T00:28:02.473Z,21.93
2018-05-31T00:28:42.918Z,21.9
2018-05-31T00:29:23.351Z,21.9
2018-05-31T00:30:03.671Z,21.85
2018-05-31T00:30:44.068Z,21.82
2018-05-31T00:31:24.523Z,21.89
2018-05-31T00:32:04.907Z,21.85
2018-05-31T00:32:45.278Z,21.86
2018-05-31T00:33:25.719Z,21.9
2018-05-31T00:34:06.133Z,21.94
2018-05-31T00:34:46.521Z,21.98
2018-05-31T00:35:26.978Z,21.9
2018-05-31T00:36:07.354Z,21.93
2018-05-31T00:36:47.763Z,21.9
2018-05-31T00:37:28.200Z,21.85
2018-05-31T00:38:08.583Z,21.91
2018-05-31T00:38:48.974Z,21.91
2018-05-31T00:39:29.401Z,21.9
2018-05-31T00:40:09.772Z,21.86
2018-05-31T00:40:50.202Z,21.86
2018-05-31T00:41:30.635Z,21.93
2018-05-31T00:42:11.076Z,21.82
2018-05-31T00:42:51.417Z,21.82
2018-05-31T00:43:31.846Z,21.86
2018-05-31T00:44:12.244Z,21.89
2018-05-31T00:44:52.672Z,21.83
2018-05-31T00:45:33.029Z,21.83
2018-05-31T00:46:13.425Z,21.86
2018-05-31T00:46:53.829Z,21.91
2018-05-31T00:47:34.252Z,21.89
2018-05-31T00:48:14.666Z,21.93
2018-05-31T00:48:55.091Z,21.93
2018-05-31T00:49:35.432Z,21.96
2018-05-31T00:50:15.848Z,21.94
2018-05-31T00:50:56.299Z,21.91
2018-05-31T00:51:36.646Z,21.86
2018-05-31T00:52:17.041Z,21.85
2018-05-31T00:52:57.447Z,21.96
2018-05-31T00:53:37.867Z,21.94
2018-05-31T00:54:18.239Z,21.9
2018-05-31T00:54:58.638Z,21.9
2018-05-31T00:55:39.048Z,21.85
2018-05-31T00:56:19.466Z,21.83
2018-05-31T00:56:59.861Z,21.82
2018-05-31T00:57:40.256Z,21.82
2018-05-31T00:58:20.628Z,21.7
2018-05-31T00:59:01.022Z,21.73
2018-05-31T00:59:41.432Z,21.82
2018-05-31T01:00:21.834Z,21.82
2018-05-31T01:01:02.236Z,21.83
2018-05-31T01:01:42.669Z,21.89
2018-05-31T01:02:23.078Z,21.83
2018-05-31T01:03:03.443Z,21.86
2018-05-31T01:03:43.835Z,21.85
2018-05-31T01:04:24.227Z,21.94
2018-05-31T01:05:04.659Z,21.89
2018-05-31T01:05:45.067Z,22.01
2018-05-31T01:06:25.484Z,21.99
2018-05-31T01:07:05.896Z,21.96
2018-05-31T01:07:46.294Z,22.01
2018-05-31T01:08:26.705Z,21.9
2018-05-31T01:09:07.150Z,21.85
2018-05-31T01:09:47.562Z,21.7
2018-05-31T01:10:27.997Z,21.66
2018-05-31T01:11:08.378Z,21.56
2018-05-31T01:11:48.806Z,21.48
2018-05-31T01:12:29.163Z,21.36
2018-05-31T01:13:09.575Z,21.34
2018-05-31T01:13:49.978Z,21.24
2018-05-31T01:14:30.366Z,21.26
2018-05-31T01:15:10.780Z,21.33
2018-05-31T01:15:51.219Z,21.24
2018-05-31T01:16:31.592Z,21.27
2018-05-31T01:17:12.019Z,21.24
2018-05-31T01:17:52.375Z,21.24
2018-05-31T01:18:32.783Z,21.27
2018-05-31T01:19:13.232Z,21.13
2018-05-31T01:19:53.610Z,21.12
2018-05-31T01:20:34.002Z,21.13
2018-05-31T01:21:14.444Z,21.15
2018-05-31T01:21:54.882Z,21.12
2018-05-31T01:22:35.245Z,21.11
2018-05-31T01:23:15.608Z,21.08
2018-05-31T01:23:56.035Z,21.08
2018-05-31T01:24:36.435Z,21.05
2018-05-31T01:25:16.861Z,21.06
2018-05-31T01:25:57.246Z,20.97
2018-05-31T01:26:37.640Z,20.98
2018-05-31T01:27:18.098Z,20.91
2018-05-31T01:27:58.501Z,20.82
2018-05-31T01:28:38.862Z,20.72
2018-05-31T01:29:19.264Z,20.56
2018-05-31T01:29:59.678Z,20.33
2018-05-31T01:30:40.067Z,20.15
2018-05-31T01:31:20.494Z,20.05
2018-05-31T01:32:00.928Z,20.08
2018-05-31T01:32:41.272Z,20.08
2018-05-31T01:33:21.669Z,20.13
2018-05-31T01:34:02.088Z,20.13
2018-05-31T01:34:42.546Z,20.33
2018-05-31T01:36:32.920Z,20.33
2018-05-31T01:40:24.627Z,20.16
2018-05-31T01:41:05.038Z,20.27
2018-05-31T01:41:45.421Z,20.27
2018-05-31T01:42:25.817Z,20.31
2018-05-31T01:43:06.187Z,20.33
2018-05-31T01:43:46.625Z,20.27
2018-05-31T01:44:27.022Z,20.42
2018-05-31T01:45:07.447Z,20.44
2018-05-31T01:45:47.780Z,20.48
2018-05-31T01:46:28.217Z,20.5
2018-05-31T01:47:08.634Z,20.44
2018-05-31T01:47:49.031Z,20.44
2018-05-31T01:48:29.399Z,20.48
2018-05-31T01:49:09.811Z,20.5
2018-05-31T01:49:50.214Z,20.5
2018-05-31T01:50:30.564Z,20.56
2018-05-31T01:51:10.980Z,20.44
2018-05-31T01:51:51.384Z,20.44
2018-05-31T01:52:31.769Z,20.54
2018-05-31T01:53:12.198Z,20.51
2018-05-31T01:53:52.558Z,20.63
2018-05-31T01:54:32.972Z,20.69
2018-05-31T01:55:13.358Z,20.68
2018-05-31T01:55:53.769Z,20.75
2018-05-31T01:56:34.127Z,20.75
2018-05-31T01:57:14.527Z,20.85
2018-05-31T01:57:54.960Z,20.9
2018-05-31T01:58:50.670Z,20.9
2018-05-31T01:59:31.784Z,20.91
2018-05-31T02:00:12.136Z,20.9
2018-05-31T02:00:52.651Z,20.88
2018-05-31T02:01:33.031Z,20.9
2018-05-31T02:02:13.463Z,20.88
2018-05-31T02:02:56.597Z,20.88
2018-05-31T02:03:49.695Z,20.87
2018-05-31T02:04:30.122Z,20.85
2018-05-31T02:05:29.113Z,20.73
2018-05-31T02:06:09.517Z,20.76
2018-05-31T02:06:49.897Z,20.75
2018-05-31T02:07:30.312Z,20.76
2018-05-31T02:08:10.677Z,20.76
2018-05-31T02:08:51.118Z,20.78
2018-05-31T02:09:31.494Z,20.82
2018-05-31T02:10:11.914Z,20.87
2018-05-31T02:10:52.334Z,20.9
2018-05-31T02:11:32.729Z,20.9
2018-05-31T02:12:13.143Z,21
2018-05-31T02:12:53.524Z,21.05
2018-05-31T02:13:33.912Z,21.11
2018-05-31T02:14:14.315Z,21.11
2018-05-31T02:14:54.717Z,21.16
2018-05-31T02:15:35.121Z,21.16
2018-05-31T02:16:15.536Z,21.24
2018-05-31T02:16:55.929Z,21.22
2018-05-31T02:17:36.379Z,21.28
2018-05-31T02:18:16.771Z,21.27
2018-05-31T02:18:57.172Z,21.34
2018-05-31T02:19:37.546Z,21.33
2018-05-31T02:20:17.967Z,21.42
2018-05-31T02:20:58.330Z,21.48
2018-05-31T02:21:38.775Z,21.46
2018-05-31T02:22:19.168Z,21.46
2018-05-31T02:22:59.621Z,21.45
2018-05-31T02:23:39.981Z,21.53
2018-05-31T02:24:20.417Z,21.48
2018-05-31T02:25:00.842Z,21.52
2018-05-31T02:25:41.248Z,21.52
2018-05-31T02:26:21.648Z,21.61
2018-05-31T02:27:02.037Z,21.59
2018-05-31T02:27:42.431Z,21.52
2018-05-31T02:28:22.856Z,21.67
2018-05-31T02:29:03.219Z,21.63
2018-05-31T02:29:43.646Z,21.7
2018-05-31T02:30:23.990Z,21.63
2018-05-31T02:31:04.393Z,21.7
2018-05-31T02:31:44.814Z,21.81
2018-05-31T02:32:25.207Z,21.85
2018-05-31T02:33:05.641Z,21.82
2018-05-31T02:33:46.026Z,21.9
2018-05-31T02:34:26.419Z,21.93
2018-05-31T02:35:06.844Z,21.96
2018-05-31T02:35:47.249Z,21.93
2018-05-31T02:36:27.619Z,22.02
2018-05-31T02:37:08.046Z,22.02
2018-05-31T02:37:48.469Z,21.98
2018-05-31T02:38:28.897Z,22.04
2018-05-31T02:39:09.285Z,21.94
2018-05-31T02:39:49.677Z,21.98
2018-05-31T02:40:30.064Z,22.02
2018-05-31T02:41:10.502Z,22.04
2018-05-31T02:41:50.890Z,21.98
2018-05-31T02:42:31.295Z,21.98
2018-05-31T02:43:11.723Z,21.93
2018-05-31T02:43:52.111Z,22.01
2018-05-31T02:44:32.545Z,21.96
2018-05-31T02:45:12.938Z,21.93
2018-05-31T02:45:53.363Z,21.89
2018-05-31T02:46:33.759Z,21.9
2018-05-31T02:47:14.163Z,21.93
2018-05-31T02:47:54.570Z,21.82
2018-05-31T02:48:34.935Z,21.81
2018-05-31T02:49:15.388Z,21.74
2018-05-31T02:49:55.782Z,21.7
2018-05-31T02:50:36.178Z,21.73
2018-05-31T02:51:16.555Z,21.66
2018-05-31T02:51:56.975Z,21.7
2018-05-31T02:52:37.377Z,21.58
2018-05-31T02:53:17.799Z,21.56
2018-05-31T02:53:58.172Z,21.58
2018-05-31T02:54:38.598Z,21.59
2018-05-31T02:55:18.965Z,21.56
2018-05-31T02:55:59.392Z,21.64
2018-05-31T02:56:39.758Z,21.59
2018-05-31T02:57:20.135Z,21.59
2018-05-31T02:58:00.577Z,21.64
2018-05-31T02:58:40.937Z,21.61
2018-05-31T02:59:21.336Z,21.56
2018-05-31T03:00:01.726Z,21.56
2018-05-31T03:00:42.146Z,21.61
2018-05-31T03:01:22.544Z,21.59
2018-05-31T03:02:02.991Z,21.53
2018-05-31T03:02:43.364Z,21.55
2018-05-31T03:03:23.727Z,21.56
2018-05-31T03:04:04.146Z,21.58
2018-05-31T03:04:44.577Z,21.52
2018-05-31T03:05:24.971Z,21.53
2018-05-31T03:06:05.419Z,21.59
2018-05-31T03:06:45.811Z,21.46
2018-05-31T03:11:41.010Z,21.59
2018-05-31T03:12:21.368Z,21.51
2018-05-31T03:13:01.765Z,21.59
2018-05-31T03:13:42.183Z,21.55
2018-05-31T03:14:22.566Z,21.58
2018-05-31T03:15:03.013Z,21.64
2018-05-31T03:15:43.435Z,21.59
2018-05-31T03:16:23.821Z,21.59
2018-05-31T03:17:04.195Z,21.52
2018-05-31T03:17:44.603Z,21.61
2018-05-31T03:18:25.011Z,21.59
2018-05-31T03:19:05.484Z,21.56
2018-05-31T03:19:45.805Z,21.53
2018-05-31T03:20:26.208Z,21.58
2018-05-31T03:21:06.600Z,21.53
2018-05-31T03:21:47.027Z,21.52
2018-05-31T03:22:27.421Z,21.55
2018-05-31T03:23:07.809Z,21.53
2018-05-31T03:25:09.572Z,21.56
2018-05-31T03:25:57.380Z,21.67
2018-05-31T03:27:35.107Z,21.56
2018-05-31T03:28:15.505Z,21.51
2018-05-31T03:28:55.926Z,21.52
2018-05-31T03:29:36.357Z,21.45
2018-05-31T03:30:16.729Z,21.43
2018-05-31T03:30:57.146Z,21.42
2018-05-31T03:31:37.555Z,21.43
2018-05-31T03:32:17.936Z,21.37
2018-05-31T03:34:30.915Z,21.3
2018-05-31T03:35:11.251Z,21.37
2018-05-31T03:35:51.672Z,21.27
2018-05-31T03:36:32.099Z,21.31
2018-05-31T03:37:12.530Z,21.33
2018-05-31T03:37:52.961Z,21.27
2018-05-31T03:38:33.339Z,21.28
2018-05-31T03:39:13.714Z,21.37
2018-05-31T03:39:54.131Z,21.34
2018-05-31T03:40:34.520Z,21.28
2018-05-31T03:41:14.897Z,21.31
2018-05-31T03:41:55.316Z,21.22
2018-05-31T03:42:35.725Z,21.28
2018-05-31T03:43:16.107Z,21.28
2018-05-31T03:43:56.522Z,21.18
2018-05-31T03:44:36.886Z,21.3
2018-05-31T03:45:17.294Z,21.27
2018-05-31T03:45:57.684Z,21.22
2018-05-31T03:46:38.095Z,21.26
2018-05-31T03:47:25.352Z,21.28
2018-05-31T03:48:08.640Z,21.31
2018-05-31T03:48:49.016Z,21.28
2018-05-31T03:49:29.419Z,21.31
2018-05-31T03:50:09.834Z,21.3
2018-05-31T03:50:50.244Z,21.3
2018-05-31T03:51:30.651Z,21.33
2018-05-31T03:52:11.090Z,21.33
2018-05-31T03:52:51.477Z,21.31
2018-05-31T03:53:31.862Z,21.28
2018-05-31T03:54:12.262Z,21.26
2018-05-31T03:54:52.674Z,21.4
2018-05-31T03:55:33.082Z,21.45
2018-05-31T03:56:13.500Z,21.45
2018-05-31T03:56:53.890Z,21.55
2018-05-31T03:57:34.250Z,21.46
2018-05-31T03:58:14.658Z,21.53
2018-05-31T03:58:55.043Z,21.49
2018-05-31T03:59:35.481Z,21.58
2018-05-31T04:00:15.848Z,21.63
2018-05-31T04:00:56.246Z,21.64
2018-05-31T04:01:36.701Z,21.56
2018-05-31T04:02:17.094Z,21.58
2018-05-31T04:02:57.508Z,21.59
2018-05-31T04:03:37.919Z,21.66
2018-05-31T04:41:51.851Z,22.6
2018-05-31T04:42:32.290Z,22.66
2018-05-31T04:43:12.605Z,22.64
2018-05-31T04:43:52.971Z,22.63
2018-05-31T04:44:33.372Z,22.7
2018-05-31T04:45:13.770Z,22.78
2018-05-31T04:45:54.204Z,22.72
2018-05-31T04:46:34.593Z,22.79
2018-05-31T04:47:14.975Z,22.74
2018-05-31T04:47:55.384Z,22.76
2018-05-31T04:48:35.785Z,22.61
2018-05-31T04:49:16.189Z,22.57
2018-05-31T04:49:56.554Z,22.56
2018-05-31T04:50:36.935Z,22.44
2018-05-31T04:51:17.336Z,22.41
2018-05-31T04:51:57.780Z,22.38
2018-05-31T04:52:38.179Z,22.33
2018-05-31T04:53:18.562Z,22.24
2018-05-31T04:53:58.980Z,22.24
2018-05-31T04:54:39.367Z,22.09
2018-05-31T04:55:19.773Z,22.06
2018-05-31T04:56:00.148Z,22.05
2018-05-31T04:56:40.537Z,22.04
2018-05-31T04:57:20.956Z,21.94
2018-05-31T04:59:13.814Z,22.05
2018-05-31T04:59:54.130Z,21.93
2018-05-31T05:00:34.506Z,22.05
2018-05-31T05:01:14.907Z,21.98
2018-05-31T05:01:55.359Z,22.01
2018-05-31T05:02:35.751Z,21.98
2018-05-31T05:03:16.127Z,21.96
2018-05-31T05:03:56.572Z,22.04
2018-05-31T05:04:36.966Z,22.06
2018-05-31T05:05:17.361Z,22.08
2018-05-31T05:05:57.752Z,22.11
2018-05-31T05:06:38.134Z,22.14
2018-05-31T05:07:18.563Z,22.19
2018-05-31T05:07:58.952Z,22.19
2018-05-31T05:08:39.348Z,22.31
2018-05-31T05:09:19.802Z,22.39
2018-05-31T05:10:00.212Z,22.41
2018-05-31T05:10:40.611Z,22.46
2018-05-31T05:11:27.805Z,22.54
2018-05-31T05:12:08.189Z,22.49
2018-05-31T05:12:48.611Z,22.52
2018-05-31T05:13:28.996Z,22.49
2018-05-31T05:14:09.404Z,22.6
2018-05-31T05:14:49.830Z,22.63
2018-05-31T05:15:30.227Z,22.66
2018-05-31T05:16:10.626Z,22.67
2018-05-31T05:16:50.980Z,22.67
2018-05-31T05:17:31.411Z,22.78
2018-05-31T05:18:14.346Z,22.75
2018-05-31T05:18:54.736Z,22.84
2018-05-31T05:19:35.184Z,22.76
2018-05-31T05:20:15.536Z,22.75
2018-05-31T05:20:55.972Z,22.72
2018-05-31T05:21:36.410Z,22.7
2018-05-31T05:22:16.759Z,22.69
2018-05-31T05:22:57.194Z,22.61
2018-05-31T05:23:37.574Z,22.56
2018-05-31T05:24:17.974Z,22.49
2018-05-31T05:24:58.386Z,22.46
2018-05-31T05:25:38.800Z,22.56
2018-05-31T05:26:19.170Z,22.54
2018-05-31T05:26:59.569Z,22.6
2018-05-31T05:27:39.953Z,22.72
2018-05-31T05:28:43.690Z,22.75
2018-05-31T05:29:33.829Z,22.78
2018-05-31T05:30:14.230Z,22.81
2018-05-31T05:30:54.619Z,22.78
2018-05-31T05:31:35.009Z,22.76
2018-05-31T05:32:22.391Z,22.66
2018-05-31T05:33:02.807Z,22.64
2018-05-31T05:33:43.200Z,22.49
2018-05-31T05:34:23.603Z,22.49
2018-05-31T05:35:04.026Z,22.54
2018-05-31T05:35:44.428Z,22.56
2018-05-31T05:36:24.813Z,22.51
2018-05-31T05:37:05.217Z,22.6
2018-05-31T05:37:45.590Z,22.79
2018-05-31T05:38:26.047Z,22.75
2018-05-31T05:39:06.415Z,22.76
2018-05-31T05:39:46.819Z,22.72
2018-05-31T05:40:27.236Z,22.72
2018-05-31T05:41:07.632Z,22.63
2018-05-31T05:41:48.021Z,22.54
2018-05-31T05:42:28.442Z,22.52
2018-05-31T05:43:08.826Z,22.46
2018-05-31T05:43:49.213Z,22.48
2018-05-31T05:44:29.659Z,22.56
2018-05-31T05:45:10.062Z,22.42
2018-05-31T05:45:50.432Z,22.41
2018-05-31T05:46:30.837Z,22.39
2018-05-31T05:47:11.249Z,22.48
2018-05-31T05:47:51.677Z,22.35
2018-05-31T05:48:32.054Z,22.3
2018-05-31T05:49:12.451Z,22.23
2018-05-31T05:49:52.853Z,22.2
2018-05-31T05:50:33.246Z,22.23
2018-05-31T05:51:13.703Z,22.26
2018-05-31T05:51:54.097Z,22.35
2018-05-31T05:52:34.546Z,22.36
2018-05-31T05:53:14.947Z,22.41
2018-05-31T05:53:55.335Z,22.41
2018-05-31T05:54:35.728Z,22.39
2018-05-31T05:55:16.146Z,22.36
2018-05-31T05:55:56.576Z,22.41
2018-05-31T05:56:36.967Z,22.41
2018-05-31T05:57:17.369Z,22.41
2018-05-31T05:57:57.743Z,22.46
2018-05-31T05:58:38.174Z,22.42
2018-05-31T05:59:18.606Z,22.42
2018-05-31T05:59:58.954Z,22.46
2018-05-31T06:00:39.376Z,22.54
2018-05-31T06:01:19.809Z,22.59
2018-05-31T06:02:00.176Z,22.52
2018-05-31T06:02:40.605Z,22.49
2018-05-31T06:03:21.005Z,22.51
2018-05-31T06:04:01.431Z,22.57
2018-05-31T06:04:41.811Z,22.59
2018-05-31T06:05:22.185Z,22.67
2018-05-31T06:06:02.628Z,22.61
2018-05-31T06:06:43.024Z,22.63
2018-05-31T06:07:23.423Z,22.57
2018-05-31T06:08:03.858Z,22.59
2018-05-31T06:08:44.244Z,22.6
2018-05-31T06:09:24.665Z,22.48
2018-05-31T06:10:05.051Z,22.57
2018-05-31T06:10:45.435Z,22.56
2018-05-31T06:11:25.824Z,22.56
2018-05-31T06:12:06.262Z,22.49
2018-05-31T06:12:46.641Z,22.56
2018-05-31T06:13:27.051Z,22.56
2018-05-31T06:14:07.425Z,22.6
2018-05-31T06:14:47.881Z,22.67
2018-05-31T06:15:28.287Z,22.74
2018-05-31T06:16:08.649Z,22.79
2018-05-31T06:16:49.028Z,22.93
2018-05-31T06:17:44.393Z,22.96
2018-05-31T06:18:24.727Z,22.88
2018-05-31T06:19:05.177Z,22.86
2018-05-31T06:19:45.600Z,23.07
2018-05-31T06:20:25.976Z,23.03
2018-05-31T06:21:06.455Z,23.14
2018-05-31T06:21:46.821Z,23.11
2018-05-31T06:22:27.262Z,23.12
2018-05-31T06:23:07.665Z,23.26
2018-05-31T06:23:48.065Z,23.26
2018-05-31T06:24:28.560Z,23.29
2018-05-31T06:25:08.932Z,23.38
2018-05-31T06:25:49.294Z,23.37
2018-05-31T06:26:29.923Z,23.41
2018-05-31T06:27:10.144Z,23.37
2018-05-31T06:27:50.524Z,23.35
2018-05-31T06:28:30.933Z,23.41
2018-05-31T06:29:11.384Z,23.47
2018-05-31T06:29:54.565Z,23.56
2018-05-31T06:30:35.002Z,23.56
2018-05-31T06:31:15.442Z,23.42
2018-05-31T06:31:55.870Z,23.52
2018-05-31T06:32:36.294Z,23.56
2018-05-31T06:33:16.671Z,23.57
2018-05-31T06:33:57.122Z,23.56
2018-05-31T06:34:37.589Z,23.6
2018-05-31T06:35:17.974Z,23.59
2018-05-31T06:35:58.408Z,23.56
2018-05-31T06:36:38.814Z,23.64
2018-05-31T06:37:19.274Z,23.62
2018-05-31T06:37:59.638Z,23.68
2018-05-31T06:38:40.032Z,23.68
2018-05-31T06:39:20.458Z,23.71
2018-05-31T06:40:00.852Z,23.69
2018-05-31T06:40:41.302Z,23.63
2018-05-31T06:41:21.686Z,23.75
2018-05-31T06:42:02.125Z,23.68
2018-05-31T06:42:42.502Z,23.71
2018-05-31T06:43:22.863Z,23.72
2018-05-31T06:44:03.244Z,23.68
2018-05-31T06:44:43.738Z,23.71
2018-05-31T06:45:24.085Z,23.64
2018-05-31T06:46:04.500Z,23.75
2018-05-31T06:46:44.890Z,23.71
2018-05-31T06:47:25.343Z,23.6
2018-05-31T06:48:05.731Z,23.69
2018-05-31T06:48:46.308Z,23.68
2018-05-31T06:49:26.794Z,23.63
2018-05-31T06:50:07.105Z,23.71
2018-05-31T06:50:47.546Z,23.79
2018-05-31T06:51:27.930Z,23.71
2018-05-31T06:52:08.467Z,23.72
2018-05-31T06:52:48.835Z,23.81
2018-05-31T06:53:29.192Z,23.67
2018-05-31T06:54:09.627Z,23.71
2018-05-31T06:54:49.987Z,23.67
2018-05-31T06:55:30.412Z,23.77
2018-05-31T06:56:10.867Z,23.69
2018-05-31T06:56:51.251Z,23.78
2018-05-31T06:57:31.685Z,23.75
2018-05-31T06:58:12.064Z,23.69
2018-05-31T06:58:52.629Z,23.81
2018-05-31T06:59:33.067Z,23.67
2018-05-31T07:00:13.489Z,23.64
2018-05-31T07:00:54.013Z,23.62
2018-05-31T07:01:34.283Z,23.77
2018-05-31T07:02:14.665Z,23.78
2018-05-31T07:02:55.040Z,23.74
2018-05-31T07:03:35.475Z,23.75
2018-05-31T07:04:15.833Z,23.78
2018-05-31T07:04:56.350Z,23.69
2018-05-31T07:05:36.721Z,23.74
2018-05-31T07:06:17.097Z,23.67
2018-05-31T07:06:57.599Z,23.64
2018-05-31T07:07:37.944Z,23.64
2018-05-31T07:08:18.395Z,23.67
2018-05-31T07:08:58.791Z,23.67
2018-05-31T07:09:39.318Z,23.59
2018-05-31T07:10:19.871Z,23.44
2018-05-31T07:11:00.293Z,23.52
2018-05-31T07:11:40.708Z,23.56
2018-05-31T07:12:21.113Z,23.54
2018-05-31T07:13:01.534Z,23.57
2018-05-31T07:13:42.036Z,23.6
2018-05-31T07:14:22.385Z,23.56
2018-05-31T07:15:02.839Z,23.53
2018-05-31T07:15:43.199Z,23.44
2018-05-31T07:16:23.576Z,23.52
2018-05-31T07:17:04.058Z,23.44
2018-05-31T07:17:44.513Z,23.59
2018-05-31T07:18:24.879Z,23.44
2018-05-31T07:19:05.304Z,23.53
2018-05-31T07:19:45.695Z,23.5
2018-05-31T07:20:26.065Z,23.59
2018-05-31T07:21:06.510Z,23.47
2018-05-31T07:21:46.970Z,23.6
2018-05-31T07:22:27.330Z,23.54
2018-05-31T07:23:07.707Z,23.59
2018-05-31T07:23:48.114Z,23.6
2018-05-31T07:24:28.533Z,23.64
2018-05-31T07:25:08.914Z,23.72
2018-05-31T07:25:49.327Z,23.72
2018-05-31T07:26:29.783Z,23.75
2018-05-31T07:27:24.895Z,23.78
2018-05-31T07:28:05.268Z,23.81
2018-05-31T07:28:45.639Z,23.86
2018-05-31T07:29:26.043Z,23.93
2018-05-31T07:30:06.413Z,23.92
2018-05-31T07:30:46.827Z,23.94
2018-05-31T07:31:27.281Z,23.86
2018-05-31T07:32:07.831Z,23.93
2018-05-31T07:32:48.221Z,24.04
2018-05-31T07:33:28.661Z,23.99
2018-05-31T07:34:09.074Z,24.11
2018-05-31T07:34:49.456Z,24.05
2018-05-31T07:35:29.901Z,24.08
2018-05-31T07:36:10.247Z,24.11
2018-05-31T07:36:50.668Z,24.15
2018-05-31T07:37:31.078Z,24.11
2018-05-31T07:38:11.477Z,24.16
2018-05-31T07:38:51.862Z,24.18
2018-05-31T07:41:05.939Z,24.23
2018-05-31T07:41:46.243Z,24.27
2018-05-31T07:42:26.710Z,24.24
2018-05-31T07:43:07.103Z,24.24
2018-05-31T07:43:47.535Z,24.27
2018-05-31T07:44:27.935Z,24.26
2018-05-31T07:45:08.311Z,24.3
2018-05-31T07:45:48.703Z,24.26
2018-05-31T07:46:29.070Z,24.29
2018-05-31T07:47:09.471Z,24.36
2018-05-31T07:47:49.891Z,24.36
2018-05-31T07:48:30.303Z,24.44
2018-05-31T07:49:10.657Z,24.48
2018-05-31T07:49:51.078Z,24.44
2018-05-31T07:50:31.459Z,24.46
2018-05-31T07:51:11.926Z,24.41
2018-05-31T07:51:52.318Z,24.45
2018-05-31T07:52:32.718Z,24.39
2018-05-31T07:53:13.093Z,24.41
2018-05-31T07:53:53.495Z,24.46
2018-05-31T07:54:33.922Z,24.45
2018-05-31T07:55:14.279Z,24.45
2018-05-31T07:55:54.716Z,24.42
2018-05-31T07:56:35.080Z,24.45
2018-05-31T07:57:15.560Z,24.52
2018-05-31T07:57:55.973Z,24.61
2018-05-31T07:58:36.360Z,24.56
2018-05-31T07:59:16.749Z,24.56
2018-05-31T07:59:57.172Z,24.6
2018-05-31T08:00:37.554Z,24.63
2018-05-31T08:01:18.012Z,24.56
2018-05-31T08:01:58.357Z,24.68
2018-05-31T08:02:38.776Z,24.55
2018-05-31T08:03:19.202Z,24.61
2018-05-31T08:03:59.626Z,24.63
2018-05-31T08:04:39.982Z,24.66
2018-05-31T08:05:20.518Z,24.59
2018-05-31T08:06:00.987Z,24.59
2018-05-31T08:06:41.345Z,24.66
2018-05-31T08:07:22.729Z,24.6
2018-05-31T08:08:02.505Z,24.66
2018-05-31T08:08:43.200Z,24.59
2018-05-31T08:09:23.503Z,24.67
2018-05-31T08:10:04.084Z,24.64
2018-05-31T08:10:44.487Z,24.67
2018-05-31T08:11:24.884Z,24.59
2018-05-31T08:12:05.340Z,24.67
2018-05-31T08:12:45.726Z,24.67
2018-05-31T08:13:26.131Z,24.74
2018-05-31T08:14:13.251Z,24.67
2018-05-31T08:14:53.719Z,24.79
2018-05-31T08:15:34.047Z,24.7
2018-05-31T08:16:14.469Z,24.68
2018-05-31T08:16:54.918Z,24.67
2018-05-31T08:17:35.280Z,24.66
2018-05-31T08:18:15.662Z,24.67
2018-05-31T08:18:56.048Z,24.68
2018-05-31T08:19:36.475Z,24.7
2018-05-31T08:20:16.888Z,24.83
2018-05-31T08:20:57.304Z,24.84
2018-05-31T08:21:37.678Z,24.77
2018-05-31T08:22:18.097Z,24.8
2018-05-31T08:22:58.494Z,24.82
2018-05-31T08:23:38.855Z,24.8
2018-05-31T08:24:19.278Z,24.83
2018-05-31T08:24:59.724Z,24.87
2018-05-31T08:25:40.118Z,24.84
2018-05-31T08:26:20.509Z,24.86
2018-05-31T08:27:00.961Z,24.92
2018-05-31T08:27:41.393Z,24.98
2018-05-31T08:28:21.821Z,25.01
2018-05-31T08:29:02.188Z,24.87
2018-05-31T08:29:42.602Z,24.98
2018-05-31T08:30:23.012Z,24.92
2018-05-31T08:31:03.424Z,24.87
2018-05-31T08:31:43.841Z,24.89
2018-05-31T08:32:30.972Z,24.9
2018-05-31T08:33:11.343Z,24.98
2018-05-31T08:33:51.780Z,24.89
2018-05-31T08:34:32.169Z,24.89
2018-05-31T08:35:12.596Z,24.94
2018-05-31T08:35:52.961Z,25.01
2018-05-31T08:36:33.351Z,24.98
2018-05-31T08:37:13.771Z,25.08
2018-05-31T08:37:54.156Z,25.01
2018-05-31T08:38:34.596Z,25.08
2018-05-31T08:39:15.008Z,25.05
2018-05-31T08:39:55.417Z,25.07
2018-05-31T08:40:35.865Z,25.04
2018-05-31T08:41:16.492Z,25.07
2018-05-31T08:41:56.934Z,25.07
2018-05-31T08:42:37.544Z,25.07
2018-05-31T08:43:18.571Z,25.07
2018-05-31T08:43:59.374Z,25.05
2018-05-31T08:44:40.362Z,25.02
2018-05-31T08:45:20.576Z,25.08
2018-05-31T08:46:01.258Z,25.02
2018-05-31T08:46:42.507Z,24.99
2018-05-31T08:47:23.674Z,24.92
2018-05-31T08:48:03.634Z,24.87
2018-05-31T08:48:44.684Z,24.89
2018-05-31T08:49:25.691Z,24.89
2018-05-31T08:50:05.557Z,24.97
2018-05-31T08:50:46.573Z,24.98
2018-05-31T08:51:30.176Z,24.92
2018-05-31T08:53:32.544Z,25.07
2018-05-31T08:54:14.073Z,25.08
2018-05-31T08:54:54.430Z,25.05
2018-05-31T08:55:34.820Z,25.09
2018-05-31T08:56:15.539Z,25.11
2018-05-31T08:56:56.182Z,25.08
2018-05-31T08:57:51.667Z,25.04
2018-05-31T08:58:33.085Z,25.05
2018-05-31T08:59:13.101Z,25.16
2018-05-31T08:59:53.990Z,25.14
2018-05-31T09:00:34.943Z,25.07
2018-05-31T09:01:15.959Z,25.07
2018-05-31T09:01:56.301Z,25.19
2018-05-31T09:02:37.412Z,25.17
2018-05-31T09:03:17.803Z,25.26
2018-05-31T09:03:59.594Z,25.35
2018-05-31T09:04:39.701Z,25.38
2018-05-31T09:05:20.577Z,25.38
2018-05-31T09:06:02.591Z,25.38
2018-05-31T09:06:42.480Z,25.46
2018-05-31T09:07:23.228Z,25.63
2018-05-31T09:08:03.845Z,25.6
2018-05-31T09:08:44.986Z,25.63
2018-05-31T09:09:25.493Z,25.64
2018-05-31T09:10:06.791Z,25.63
2018-05-31T09:10:48.087Z,25.71
2018-05-31T09:11:28.414Z,25.72
2018-05-31T09:12:09.063Z,25.85
2018-05-31T09:12:50.238Z,25.96
2018-05-31T09:13:30.482Z,26.01
2018-05-31T09:14:11.628Z,26.21
2018-05-31T09:14:52.125Z,26.24
2018-05-31T09:15:32.523Z,26.27
2018-05-31T09:16:13.021Z,26.44
2018-05-31T09:16:53.505Z,26.49
2018-05-31T09:17:34.777Z,26.44
2018-05-31T09:18:14.914Z,26.53
2018-05-31T09:18:55.476Z,26.54
2018-05-31T09:19:36.190Z,26.5
2018-05-31T09:20:16.822Z,26.53
2018-05-31T09:20:58.090Z,26.53
2018-05-31T09:21:38.280Z,26.41
2018-05-31T09:22:18.954Z,26.36
2018-05-31T09:22:59.661Z,26.36
2018-05-31T09:23:40.036Z,26.32
2018-05-31T09:24:20.584Z,26.24
2018-05-31T09:25:01.207Z,26.21
2018-05-31T09:25:41.897Z,26.2
2018-05-31T09:26:22.655Z,26.08
2018-05-31T09:27:03.543Z,26
2018-05-31T09:27:45.120Z,25.82
2018-05-31T09:28:25.571Z,25.72
2018-05-31T09:29:06.706Z,25.71
2018-05-31T09:29:47.086Z,25.69
2018-05-31T09:30:27.480Z,25.74
2018-05-31T09:31:08.334Z,25.63
2018-05-31T09:31:49.306Z,25.49
2018-05-31T09:32:29.895Z,25.6
2018-05-31T09:33:10.930Z,25.66
2018-05-31T09:33:51.587Z,25.56
2018-05-31T09:34:33.096Z,25.45
2018-05-31T09:35:13.191Z,25.36
2018-05-31T09:35:53.824Z,25.36
2018-05-31T09:36:34.327Z,25.38
2018-05-31T09:37:16.090Z,25.34
2018-05-31T09:37:55.826Z,25.38
2018-05-31T09:38:37.091Z,25.42
2018-05-31T09:39:17.164Z,25.46